sensor_id;sensor_type;location;lat;lon;timestamp;P1;durP1;ratioP1;P2;durP2;ratioP2
67965;SDS011;54749;47.850;9.002;2023-06-26T00:00:04;10.87;;;5.17;;
67965;SDS011;54749;47.850;9.002;2023-06-26T00:02:32;11.48;;;6.57;;
67965;SDS011;54749;47.850;9.002;2023-06-26T00:05:00;12.73;;;6.47;;
67965;SDS011;54749;47.850;9.002;2023-06-26T00:07:30;12.55;;;6.93;;
67965;SDS011;54749;47.850;9.002;2023-06-26T00:09:57;11.95;;;6.80;;
67965;SDS011;54749;47.850;9.002;2023-06-26T00:12:25;15.50;;;6.23;;
67965;SDS011;54749;47.850;9.002;2023-06-26T00:14:53;11.07;;;6.18;;
67965;SDS011;54749;47.850;9.002;2023-06-26T00:17:20;10.85;;;5.80;;
67965;SDS011;54749;47.850;9.002;2023-06-26T00:19:48;10.85;;;5.50;;
67965;SDS011;54749;47.850;9.002;2023-06-26T00:22:15;11.82;;;5.35;;
67965;SDS011;54749;47.850;9.002;2023-06-26T00:24:42;10.73;;;5.30;;
67965;SDS011;54749;47.850;9.002;2023-06-26T00:27:11;10.13;;;4.90;;
67965;SDS011;54749;47.850;9.002;2023-06-26T00:29:38;10.80;;;5.10;;
67965;SDS011;54749;47.850;9.002;2023-06-26T00:32:06;10.77;;;5.20;;
67965;SDS011;54749;47.850;9.002;2023-06-26T00:34:33;12.80;;;7.18;;
67965;SDS011;54749;47.850;9.002;2023-06-26T00:37:00;13.17;;;7.00;;
67965;SDS011;54749;47.850;9.002;2023-06-26T00:39:27;13.30;;;7.28;;
67965;SDS011;54749;47.850;9.002;2023-06-26T00:41:54;14.10;;;7.15;;
67965;SDS011;54749;47.850;9.002;2023-06-26T00:44:22;11.27;;;5.93;;
67965;SDS011;54749;47.850;9.002;2023-06-26T00:46:49;10.43;;;5.47;;
67965;SDS011;54749;47.850;9.002;2023-06-26T00:49:17;14.53;;;7.47;;
67965;SDS011;54749;47.850;9.002;2023-06-26T00:51:44;12.48;;;6.40;;
67965;SDS011;54749;47.850;9.002;2023-06-26T00:54:11;12.30;;;5.95;;
67965;SDS011;54749;47.850;9.002;2023-06-26T00:56:38;12.43;;;5.63;;
67965;SDS011;54749;47.850;9.002;2023-06-26T00:59:06;12.25;;;5.65;;
67965;SDS011;54749;47.850;9.002;2023-06-26T01:01:33;10.80;;;5.63;;
67965;SDS011;54749;47.850;9.002;2023-06-26T01:04:00;11.23;;;5.70;;
67965;SDS011;54749;47.850;9.002;2023-06-26T01:06:27;11.35;;;5.53;;
67965;SDS011;54749;47.850;9.002;2023-06-26T01:08:57;12.27;;;6.28;;
67965;SDS011;54749;47.850;9.002;2023-06-26T01:11:24;12.52;;;6.28;;
67965;SDS011;54749;47.850;9.002;2023-06-26T01:13:52;14.27;;;7.23;;
67965;SDS011;54749;47.850;9.002;2023-06-26T01:16:19;14.98;;;7.95;;
67965;SDS011;54749;47.850;9.002;2023-06-26T01:18:47;17.60;;;7.82;;
67965;SDS011;54749;47.850;9.002;2023-06-26T01:21:15;17.23;;;8.10;;
67965;SDS011;54749;47.850;9.002;2023-06-26T01:26:20;12.97;;;6.70;;
67965;SDS011;54749;47.850;9.002;2023-06-26T01:28:51;14.35;;;7.63;;
67965;SDS011;54749;47.850;9.002;2023-06-26T01:31:19;13.80;;;7.70;;
67965;SDS011;54749;47.850;9.002;2023-06-26T01:33:47;16.55;;;8.43;;
67965;SDS011;54749;47.850;9.002;2023-06-26T01:36:14;15.20;;;8.20;;
67965;SDS011;54749;47.850;9.002;2023-06-26T01:38:42;14.37;;;7.90;;
67965;SDS011;54749;47.850;9.002;2023-06-26T01:41:09;17.05;;;9.02;;
67965;SDS011;54749;47.850;9.002;2023-06-26T01:46:24;15.48;;;7.57;;
67965;SDS011;54749;47.850;9.002;2023-06-26T01:48:59;13.38;;;6.72;;
67965;SDS011;54749;47.850;9.002;2023-06-26T01:51:30;14.37;;;6.53;;
67965;SDS011;54749;47.850;9.002;2023-06-26T01:53:57;14.20;;;7.32;;
67965;SDS011;54749;47.850;9.002;2023-06-26T01:56:25;15.13;;;7.95;;
67965;SDS011;54749;47.850;9.002;2023-06-26T01:58:56;12.45;;;6.28;;
67965;SDS011;54749;47.850;9.002;2023-06-26T02:01:23;11.80;;;6.10;;
67965;SDS011;54749;47.850;9.002;2023-06-26T02:03:52;10.70;;;5.33;;
67965;SDS011;54749;47.850;9.002;2023-06-26T02:06:19;11.75;;;5.53;;
67965;SDS011;54749;47.850;9.002;2023-06-26T02:08:46;10.85;;;5.38;;
67965;SDS011;54749;47.850;9.002;2023-06-26T02:11:13;9.23;;;4.85;;
67965;SDS011;54749;47.850;9.002;2023-06-26T02:13:40;10.35;;;5.07;;
67965;SDS011;54749;47.850;9.002;2023-06-26T02:16:07;9.80;;;4.73;;
67965;SDS011;54749;47.850;9.002;2023-06-26T02:18:34;10.30;;;5.47;;
67965;SDS011;54749;47.850;9.002;2023-06-26T02:21:03;12.05;;;5.90;;
67965;SDS011;54749;47.850;9.002;2023-06-26T02:23:30;12.48;;;6.28;;
67965;SDS011;54749;47.850;9.002;2023-06-26T02:25:57;12.18;;;5.95;;
67965;SDS011;54749;47.850;9.002;2023-06-26T02:28:24;12.30;;;6.70;;
67965;SDS011;54749;47.850;9.002;2023-06-26T02:30:51;13.20;;;6.50;;
67965;SDS011;54749;47.850;9.002;2023-06-26T02:33:19;14.32;;;6.78;;
67965;SDS011;54749;47.850;9.002;2023-06-26T02:35:48;15.45;;;7.63;;
67965;SDS011;54749;47.850;9.002;2023-06-26T02:38:17;16.00;;;6.80;;
67965;SDS011;54749;47.850;9.002;2023-06-26T02:40:45;18.27;;;8.23;;
67965;SDS011;54749;47.850;9.002;2023-06-26T02:43:14;16.27;;;8.82;;
67965;SDS011;54749;47.850;9.002;2023-06-26T02:45:43;16.98;;;7.68;;
67965;SDS011;54749;47.850;9.002;2023-06-26T02:48:11;13.18;;;7.07;;
67965;SDS011;54749;47.850;9.002;2023-06-26T02:50:40;13.50;;;6.75;;
67965;SDS011;54749;47.850;9.002;2023-06-26T02:53:12;12.00;;;6.40;;
67965;SDS011;54749;47.850;9.002;2023-06-26T02:55:41;11.82;;;5.55;;
67965;SDS011;54749;47.850;9.002;2023-06-26T02:58:09;13.00;;;6.93;;
67965;SDS011;54749;47.850;9.002;2023-06-26T03:00:37;12.50;;;6.32;;
67965;SDS011;54749;47.850;9.002;2023-06-26T03:03:12;11.27;;;5.20;;
67965;SDS011;54749;47.850;9.002;2023-06-26T03:05:40;9.27;;;4.80;;
67965;SDS011;54749;47.850;9.002;2023-06-26T03:08:07;12.60;;;5.95;;
67965;SDS011;54749;47.850;9.002;2023-06-26T03:10:34;11.18;;;5.60;;
67965;SDS011;54749;47.850;9.002;2023-06-26T03:13:02;12.50;;;6.38;;
67965;SDS011;54749;47.850;9.002;2023-06-26T03:15:28;12.07;;;6.28;;
67965;SDS011;54749;47.850;9.002;2023-06-26T03:17:56;12.03;;;5.77;;
67965;SDS011;54749;47.850;9.002;2023-06-26T03:20:26;11.35;;;6.00;;
67965;SDS011;54749;47.850;9.002;2023-06-26T03:22:56;11.20;;;5.53;;
67965;SDS011;54749;47.850;9.002;2023-06-26T03:25:23;11.55;;;6.00;;
67965;SDS011;54749;47.850;9.002;2023-06-26T03:27:58;16.90;;;7.90;;
67965;SDS011;54749;47.850;9.002;2023-06-26T03:30:26;12.13;;;6.73;;
67965;SDS011;54749;47.850;9.002;2023-06-26T03:32:56;15.15;;;7.00;;
67965;SDS011;54749;47.850;9.002;2023-06-26T03:35:23;12.43;;;6.47;;
67965;SDS011;54749;47.850;9.002;2023-06-26T03:37:52;12.63;;;6.20;;
67965;SDS011;54749;47.850;9.002;2023-06-26T03:40:18;16.63;;;7.60;;
67965;SDS011;54749;47.850;9.002;2023-06-26T03:42:50;13.27;;;7.27;;
67965;SDS011;54749;47.850;9.002;2023-06-26T03:45:17;14.20;;;7.55;;
67965;SDS011;54749;47.850;9.002;2023-06-26T03:47:47;15.65;;;7.78;;
67965;SDS011;54749;47.850;9.002;2023-06-26T03:50:16;18.05;;;9.77;;
67965;SDS011;54749;47.850;9.002;2023-06-26T03:52:43;16.05;;;8.23;;
67965;SDS011;54749;47.850;9.002;2023-06-26T03:55:12;14.17;;;7.07;;
67965;SDS011;54749;47.850;9.002;2023-06-26T03:57:39;15.07;;;7.18;;
67965;SDS011;54749;47.850;9.002;2023-06-26T04:00:08;14.32;;;7.45;;
67965;SDS011;54749;47.850;9.002;2023-06-26T04:02:40;12.30;;;6.55;;
67965;SDS011;54749;47.850;9.002;2023-06-26T04:05:08;12.40;;;6.68;;
67965;SDS011;54749;47.850;9.002;2023-06-26T04:07:36;11.53;;;6.10;;
67965;SDS011;54749;47.850;9.002;2023-06-26T04:10:05;13.75;;;6.95;;
67965;SDS011;54749;47.850;9.002;2023-06-26T04:12:33;16.60;;;7.95;;
67965;SDS011;54749;47.850;9.002;2023-06-26T04:15:00;13.02;;;6.80;;
67965;SDS011;54749;47.850;9.002;2023-06-26T04:17:28;13.77;;;7.25;;
67965;SDS011;54749;47.850;9.002;2023-06-26T04:19:55;13.47;;;6.70;;
67965;SDS011;54749;47.850;9.002;2023-06-26T04:22:22;14.07;;;7.15;;
67965;SDS011;54749;47.850;9.002;2023-06-26T04:24:49;13.75;;;6.85;;
67965;SDS011;54749;47.850;9.002;2023-06-26T04:27:16;13.05;;;6.85;;
67965;SDS011;54749;47.850;9.002;2023-06-26T04:29:43;13.98;;;7.18;;
67965;SDS011;54749;47.850;9.002;2023-06-26T04:32:11;12.40;;;6.90;;
67965;SDS011;54749;47.850;9.002;2023-06-26T04:34:38;15.55;;;7.57;;
67965;SDS011;54749;47.850;9.002;2023-06-26T04:37:08;14.48;;;6.90;;
67965;SDS011;54749;47.850;9.002;2023-06-26T04:39:36;13.95;;;7.20;;
67965;SDS011;54749;47.850;9.002;2023-06-26T04:42:04;12.02;;;6.40;;
67965;SDS011;54749;47.850;9.002;2023-06-26T04:44:31;11.10;;;6.33;;
67965;SDS011;54749;47.850;9.002;2023-06-26T04:46:59;13.77;;;7.63;;
67965;SDS011;54749;47.850;9.002;2023-06-26T04:49:26;14.32;;;8.13;;
67965;SDS011;54749;47.850;9.002;2023-06-26T04:51:54;13.85;;;7.32;;
67965;SDS011;54749;47.850;9.002;2023-06-26T04:54:21;14.05;;;7.30;;
67965;SDS011;54749;47.850;9.002;2023-06-26T04:56:49;14.67;;;7.80;;
67965;SDS011;54749;47.850;9.002;2023-06-26T04:59:16;12.77;;;7.30;;
67965;SDS011;54749;47.850;9.002;2023-06-26T05:01:43;16.02;;;7.32;;
67965;SDS011;54749;47.850;9.002;2023-06-26T05:04:15;11.73;;;6.82;;
67965;SDS011;54749;47.850;9.002;2023-06-26T05:06:42;12.85;;;7.93;;
67965;SDS011;54749;47.850;9.002;2023-06-26T05:09:09;12.70;;;7.00;;
67965;SDS011;54749;47.850;9.002;2023-06-26T05:11:38;12.40;;;7.22;;
67965;SDS011;54749;47.850;9.002;2023-06-26T05:14:05;12.02;;;7.13;;
67965;SDS011;54749;47.850;9.002;2023-06-26T05:16:34;13.05;;;7.07;;
67965;SDS011;54749;47.850;9.002;2023-06-26T05:19:01;10.80;;;6.78;;
67965;SDS011;54749;47.850;9.002;2023-06-26T05:21:29;13.93;;;7.03;;
67965;SDS011;54749;47.850;9.002;2023-06-26T05:23:56;11.85;;;6.75;;
67965;SDS011;54749;47.850;9.002;2023-06-26T05:26:24;12.55;;;6.40;;
67965;SDS011;54749;47.850;9.002;2023-06-26T05:28:52;10.65;;;6.82;;
67965;SDS011;54749;47.850;9.002;2023-06-26T05:31:19;10.93;;;6.38;;
67965;SDS011;54749;47.850;9.002;2023-06-26T05:33:46;11.37;;;6.23;;
67965;SDS011;54749;47.850;9.002;2023-06-26T05:36:14;9.25;;;5.78;;
67965;SDS011;54749;47.850;9.002;2023-06-26T05:38:43;9.77;;;5.95;;
67965;SDS011;54749;47.850;9.002;2023-06-26T05:41:10;10.68;;;6.80;;
67965;SDS011;54749;47.850;9.002;2023-06-26T05:43:37;11.02;;;6.53;;
67965;SDS011;54749;47.850;9.002;2023-06-26T05:46:04;11.37;;;5.93;;
67965;SDS011;54749;47.850;9.002;2023-06-26T05:48:31;9.63;;;5.70;;
67965;SDS011;54749;47.850;9.002;2023-06-26T05:50:59;9.25;;;6.22;;
67965;SDS011;54749;47.850;9.002;2023-06-26T05:53:26;9.32;;;6.25;;
67965;SDS011;54749;47.850;9.002;2023-06-26T05:55:53;10.57;;;6.53;;
67965;SDS011;54749;47.850;9.002;2023-06-26T05:58:20;10.43;;;6.70;;
67965;SDS011;54749;47.850;9.002;2023-06-26T06:00:48;10.93;;;7.00;;
67965;SDS011;54749;47.850;9.002;2023-06-26T06:03:15;9.27;;;6.50;;
67965;SDS011;54749;47.850;9.002;2023-06-26T06:05:42;10.18;;;6.40;;
67965;SDS011;54749;47.850;9.002;2023-06-26T06:08:09;8.95;;;6.03;;
67965;SDS011;54749;47.850;9.002;2023-06-26T06:10:36;7.90;;;5.70;;
67965;SDS011;54749;47.850;9.002;2023-06-26T06:13:04;12.98;;;6.72;;
67965;SDS011;54749;47.850;9.002;2023-06-26T06:15:31;8.88;;;6.00;;
67965;SDS011;54749;47.850;9.002;2023-06-26T06:17:58;9.60;;;6.15;;
67965;SDS011;54749;47.850;9.002;2023-06-26T06:20:25;8.75;;;5.90;;
67965;SDS011;54749;47.850;9.002;2023-06-26T06:22:52;8.67;;;6.10;;
67965;SDS011;54749;47.850;9.002;2023-06-26T06:25:19;8.13;;;5.75;;
67965;SDS011;54749;47.850;9.002;2023-06-26T06:27:46;10.57;;;6.50;;
67965;SDS011;54749;47.850;9.002;2023-06-26T06:30:14;10.82;;;6.25;;
67965;SDS011;54749;47.850;9.002;2023-06-26T06:32:41;8.55;;;5.63;;
67965;SDS011;54749;47.850;9.002;2023-06-26T06:35:08;10.23;;;6.70;;
67965;SDS011;54749;47.850;9.002;2023-06-26T06:37:37;8.90;;;6.15;;
67965;SDS011;54749;47.850;9.002;2023-06-26T06:40:05;12.65;;;6.82;;
67965;SDS011;54749;47.850;9.002;2023-06-26T06:42:33;9.60;;;6.32;;
67965;SDS011;54749;47.850;9.002;2023-06-26T06:45:03;8.77;;;6.43;;
67965;SDS011;54749;47.850;9.002;2023-06-26T06:47:32;10.27;;;7.03;;
67965;SDS011;54749;47.850;9.002;2023-06-26T06:50:00;9.82;;;7.18;;
67965;SDS011;54749;47.850;9.002;2023-06-26T06:52:38;11.23;;;7.00;;
67965;SDS011;54749;47.850;9.002;2023-06-26T06:55:07;11.57;;;6.70;;
67965;SDS011;54749;47.850;9.002;2023-06-26T06:57:35;9.45;;;6.70;;
67965;SDS011;54749;47.850;9.002;2023-06-26T07:00:05;11.67;;;7.33;;
67965;SDS011;54749;47.850;9.002;2023-06-26T07:02:35;10.27;;;6.70;;
67965;SDS011;54749;47.850;9.002;2023-06-26T07:05:03;14.65;;;7.90;;
67965;SDS011;54749;47.850;9.002;2023-06-26T07:07:31;7.75;;;6.10;;
67965;SDS011;54749;47.850;9.002;2023-06-26T07:09:59;10.00;;;6.10;;
67965;SDS011;54749;47.850;9.002;2023-06-26T07:12:26;10.43;;;6.40;;
67965;SDS011;54749;47.850;9.002;2023-06-26T07:14:54;10.13;;;7.30;;
67965;SDS011;54749;47.850;9.002;2023-06-26T07:17:21;11.18;;;7.43;;
67965;SDS011;54749;47.850;9.002;2023-06-26T07:19:49;11.57;;;7.15;;
67965;SDS011;54749;47.850;9.002;2023-06-26T07:22:16;12.27;;;6.90;;
67965;SDS011;54749;47.850;9.002;2023-06-26T07:24:43;9.67;;;6.90;;
67965;SDS011;54749;47.850;9.002;2023-06-26T07:27:10;13.02;;;7.13;;
67965;SDS011;54749;47.850;9.002;2023-06-26T07:29:37;10.00;;;7.68;;
67965;SDS011;54749;47.850;9.002;2023-06-26T07:32:04;10.57;;;7.57;;
67965;SDS011;54749;47.850;9.002;2023-06-26T07:34:32;9.90;;;6.72;;
67965;SDS011;54749;47.850;9.002;2023-06-26T07:37:00;10.80;;;6.53;;
67965;SDS011;54749;47.850;9.002;2023-06-26T07:39:27;11.48;;;6.82;;
67965;SDS011;54749;47.850;9.002;2023-06-26T07:41:54;9.80;;;7.28;;
67965;SDS011;54749;47.850;9.002;2023-06-26T07:44:21;11.00;;;7.28;;
67965;SDS011;54749;47.850;9.002;2023-06-26T07:46:48;10.93;;;6.35;;
67965;SDS011;54749;47.850;9.002;2023-06-26T07:49:16;10.53;;;7.20;;
67965;SDS011;54749;47.850;9.002;2023-06-26T07:51:43;14.50;;;7.72;;
67965;SDS011;54749;47.850;9.002;2023-06-26T07:54:10;11.57;;;7.88;;
67965;SDS011;54749;47.850;9.002;2023-06-26T07:59:23;17.10;;;11.05;;
67965;SDS011;54749;47.850;9.002;2023-06-26T08:01:51;11.33;;;7.10;;
67965;SDS011;54749;47.850;9.002;2023-06-26T08:04:19;11.20;;;6.70;;
67965;SDS011;54749;47.850;9.002;2023-06-26T08:06:47;10.93;;;6.88;;
67965;SDS011;54749;47.850;9.002;2023-06-26T08:09:15;12.40;;;6.60;;
67965;SDS011;54749;47.850;9.002;2023-06-26T08:11:42;9.43;;;6.22;;
67965;SDS011;54749;47.850;9.002;2023-06-26T08:14:09;12.33;;;7.93;;
67965;SDS011;54749;47.850;9.002;2023-06-26T08:16:36;11.98;;;7.00;;
67965;SDS011;54749;47.850;9.002;2023-06-26T08:19:03;11.43;;;7.13;;
67965;SDS011;54749;47.850;9.002;2023-06-26T08:21:30;10.60;;;7.18;;
67965;SDS011;54749;47.850;9.002;2023-06-26T08:23:58;7.85;;;5.53;;
67965;SDS011;54749;47.850;9.002;2023-06-26T08:26:25;8.93;;;6.23;;
67965;SDS011;54749;47.850;9.002;2023-06-26T08:28:52;10.30;;;6.70;;
67965;SDS011;54749;47.850;9.002;2023-06-26T08:31:19;10.90;;;7.25;;
67965;SDS011;54749;47.850;9.002;2023-06-26T08:33:46;10.35;;;6.45;;
67965;SDS011;54749;47.850;9.002;2023-06-26T08:36:13;9.57;;;5.97;;
67965;SDS011;54749;47.850;9.002;2023-06-26T08:38:40;9.90;;;6.60;;
67965;SDS011;54749;47.850;9.002;2023-06-26T08:41:07;9.15;;;6.00;;
67965;SDS011;54749;47.850;9.002;2023-06-26T08:43:36;9.45;;;7.07;;
67965;SDS011;54749;47.850;9.002;2023-06-26T08:46:03;8.77;;;6.63;;
67965;SDS011;54749;47.850;9.002;2023-06-26T08:48:31;12.68;;;6.90;;
67965;SDS011;54749;47.850;9.002;2023-06-26T08:51:00;11.77;;;6.67;;
67965;SDS011;54749;47.850;9.002;2023-06-26T08:56:10;9.18;;;6.63;;
67965;SDS011;54749;47.850;9.002;2023-06-26T08:58:38;11.77;;;6.78;;
67965;SDS011;54749;47.850;9.002;2023-06-26T09:01:09;9.05;;;6.72;;
67965;SDS011;54749;47.850;9.002;2023-06-26T09:03:36;9.97;;;6.10;;
67965;SDS011;54749;47.850;9.002;2023-06-26T09:06:03;11.35;;;7.30;;
67965;SDS011;54749;47.850;9.002;2023-06-26T09:08:30;9.15;;;5.85;;
67965;SDS011;54749;47.850;9.002;2023-06-26T09:10:57;8.68;;;6.40;;
67965;SDS011;54749;47.850;9.002;2023-06-26T09:13:24;13.25;;;7.30;;
67965;SDS011;54749;47.850;9.002;2023-06-26T09:15:55;9.73;;;6.10;;
67965;SDS011;54749;47.850;9.002;2023-06-26T09:18:23;10.43;;;5.82;;
67965;SDS011;54749;47.850;9.002;2023-06-26T09:20:50;10.57;;;6.50;;
67965;SDS011;54749;47.850;9.002;2023-06-26T09:23:18;9.85;;;6.28;;
67965;SDS011;54749;47.850;9.002;2023-06-26T09:25:46;9.30;;;5.57;;
67965;SDS011;54749;47.850;9.002;2023-06-26T09:28:14;11.33;;;6.47;;
67965;SDS011;54749;47.850;9.002;2023-06-26T09:30:41;11.10;;;6.20;;
67965;SDS011;54749;47.850;9.002;2023-06-26T09:33:16;8.18;;;5.82;;
67965;SDS011;54749;47.850;9.002;2023-06-26T09:35:44;11.73;;;6.53;;
67965;SDS011;54749;47.850;9.002;2023-06-26T09:38:11;8.32;;;6.45;;
67965;SDS011;54749;47.850;9.002;2023-06-26T09:40:39;9.03;;;5.93;;
67965;SDS011;54749;47.850;9.002;2023-06-26T09:43:07;10.93;;;6.63;;
67965;SDS011;54749;47.850;9.002;2023-06-26T09:45:35;10.18;;;6.53;;
67965;SDS011;54749;47.850;9.002;2023-06-26T09:48:06;9.88;;;5.90;;
67965;SDS011;54749;47.850;9.002;2023-06-26T09:50:35;9.85;;;6.88;;
67965;SDS011;54749;47.850;9.002;2023-06-26T09:53:07;9.10;;;6.07;;
67965;SDS011;54749;47.850;9.002;2023-06-26T09:55:34;12.18;;;6.30;;
67965;SDS011;54749;47.850;9.002;2023-06-26T09:58:01;8.67;;;6.20;;
67965;SDS011;54749;47.850;9.002;2023-06-26T10:00:30;10.80;;;6.50;;
67965;SDS011;54749;47.850;9.002;2023-06-26T10:02:58;9.75;;;7.07;;
67965;SDS011;54749;47.850;9.002;2023-06-26T10:05:26;8.47;;;6.00;;
67965;SDS011;54749;47.850;9.002;2023-06-26T10:07:56;8.68;;;6.22;;
67965;SDS011;54749;47.850;9.002;2023-06-26T10:10:24;8.52;;;6.45;;
67965;SDS011;54749;47.850;9.002;2023-06-26T10:12:54;8.43;;;6.55;;
67965;SDS011;54749;47.850;9.002;2023-06-26T10:15:21;11.07;;;6.97;;
67965;SDS011;54749;47.850;9.002;2023-06-26T10:17:49;11.00;;;6.50;;
67965;SDS011;54749;47.850;9.002;2023-06-26T10:20:17;8.45;;;5.90;;
67965;SDS011;54749;47.850;9.002;2023-06-26T10:22:45;8.20;;;6.25;;
67965;SDS011;54749;47.850;9.002;2023-06-26T10:25:12;9.00;;;6.45;;
67965;SDS011;54749;47.850;9.002;2023-06-26T10:27:42;9.88;;;6.05;;
67965;SDS011;54749;47.850;9.002;2023-06-26T10:30:11;8.50;;;5.87;;
67965;SDS011;54749;47.850;9.002;2023-06-26T10:32:39;8.30;;;5.95;;
67965;SDS011;54749;47.850;9.002;2023-06-26T10:35:07;11.70;;;5.72;;
67965;SDS011;54749;47.850;9.002;2023-06-26T10:37:48;8.95;;;6.55;;
67965;SDS011;54749;47.850;9.002;2023-06-26T10:40:21;9.75;;;5.97;;
67965;SDS011;54749;47.850;9.002;2023-06-26T10:42:48;8.30;;;6.40;;
67965;SDS011;54749;47.850;9.002;2023-06-26T10:45:16;9.27;;;5.78;;
67965;SDS011;54749;47.850;9.002;2023-06-26T10:47:47;11.35;;;6.03;;
67965;SDS011;54749;47.850;9.002;2023-06-26T10:55:33;10.67;;;7.30;;
67965;SDS011;54749;47.850;9.002;2023-06-26T10:58:01;8.65;;;6.43;;
67965;SDS011;54749;47.850;9.002;2023-06-26T11:00:29;9.68;;;5.90;;
67965;SDS011;54749;47.850;9.002;2023-06-26T11:02:56;8.90;;;6.40;;
67965;SDS011;54749;47.850;9.002;2023-06-26T11:05:24;7.65;;;5.45;;
67965;SDS011;54749;47.850;9.002;2023-06-26T11:08:04;9.40;;;5.70;;
67965;SDS011;54749;47.850;9.002;2023-06-26T11:10:51;8.65;;;5.90;;
67965;SDS011;54749;47.850;9.002;2023-06-26T11:13:21;9.75;;;5.88;;
67965;SDS011;54749;47.850;9.002;2023-06-26T11:15:49;9.88;;;6.15;;
67965;SDS011;54749;47.850;9.002;2023-06-26T11:18:16;8.57;;;5.88;;
67965;SDS011;54749;47.850;9.002;2023-06-26T11:20:43;10.13;;;5.90;;
67965;SDS011;54749;47.850;9.002;2023-06-26T11:23:10;9.82;;;5.90;;
67965;SDS011;54749;47.850;9.002;2023-06-26T11:25:38;7.60;;;5.50;;
67965;SDS011;54749;47.850;9.002;2023-06-26T11:28:05;9.82;;;6.10;;
67965;SDS011;54749;47.850;9.002;2023-06-26T11:30:32;9.98;;;6.32;;
67965;SDS011;54749;47.850;9.002;2023-06-26T11:33:07;8.13;;;5.17;;
67965;SDS011;54749;47.850;9.002;2023-06-26T11:35:34;10.65;;;5.90;;
67965;SDS011;54749;47.850;9.002;2023-06-26T11:38:02;9.10;;;5.90;;
67965;SDS011;54749;47.850;9.002;2023-06-26T11:40:35;9.15;;;5.82;;
67965;SDS011;54749;47.850;9.002;2023-06-26T11:43:03;9.30;;;5.60;;
67965;SDS011;54749;47.850;9.002;2023-06-26T11:45:31;8.70;;;5.33;;
67965;SDS011;54749;47.850;9.002;2023-06-26T11:47:59;8.82;;;6.00;;
67965;SDS011;54749;47.850;9.002;2023-06-26T11:50:26;11.52;;;6.28;;
67965;SDS011;54749;47.850;9.002;2023-06-26T11:52:54;8.93;;;5.70;;
67965;SDS011;54749;47.850;9.002;2023-06-26T11:55:23;10.98;;;6.43;;
67965;SDS011;54749;47.850;9.002;2023-06-26T11:57:50;13.43;;;6.33;;
67965;SDS011;54749;47.850;9.002;2023-06-26T12:00:19;9.63;;;5.90;;
67965;SDS011;54749;47.850;9.002;2023-06-26T12:02:47;11.88;;;6.20;;
67965;SDS011;54749;47.850;9.002;2023-06-26T12:05:15;17.90;;;6.28;;
67965;SDS011;54749;47.850;9.002;2023-06-26T12:07:43;13.90;;;6.38;;
67965;SDS011;54749;47.850;9.002;2023-06-26T12:10:11;16.53;;;6.80;;
67965;SDS011;54749;47.850;9.002;2023-06-26T12:12:39;17.17;;;6.70;;
67965;SDS011;54749;47.850;9.002;2023-06-26T12:15:06;19.63;;;7.40;;
67965;SDS011;54749;47.850;9.002;2023-06-26T12:17:37;13.38;;;6.20;;
67965;SDS011;54749;47.850;9.002;2023-06-26T12:20:04;11.18;;;6.47;;
67965;SDS011;54749;47.850;9.002;2023-06-26T12:22:35;12.67;;;6.33;;
67965;SDS011;54749;47.850;9.002;2023-06-26T12:25:02;12.82;;;6.20;;
67965;SDS011;54749;47.850;9.002;2023-06-26T12:27:30;13.00;;;6.22;;
67965;SDS011;54749;47.850;9.002;2023-06-26T12:29:57;17.67;;;7.30;;
67965;SDS011;54749;47.850;9.002;2023-06-26T12:32:24;16.63;;;7.30;;
67965;SDS011;54749;47.850;9.002;2023-06-26T12:34:53;14.27;;;6.60;;
67965;SDS011;54749;47.850;9.002;2023-06-26T12:37:20;11.75;;;6.30;;
67965;SDS011;54749;47.850;9.002;2023-06-26T12:39:48;15.52;;;7.03;;
67965;SDS011;54749;47.850;9.002;2023-06-26T12:42:19;16.25;;;7.20;;
67965;SDS011;54749;47.850;9.002;2023-06-26T12:44:46;18.60;;;7.90;;
67965;SDS011;54749;47.850;9.002;2023-06-26T12:47:14;11.60;;;6.77;;
67965;SDS011;54749;47.850;9.002;2023-06-26T12:49:42;12.45;;;7.15;;
67965;SDS011;54749;47.850;9.002;2023-06-26T12:52:12;13.43;;;6.93;;
67965;SDS011;54749;47.850;9.002;2023-06-26T12:54:39;10.07;;;6.30;;
67965;SDS011;54749;47.850;9.002;2023-06-26T12:57:07;10.23;;;7.22;;
67965;SDS011;54749;47.850;9.002;2023-06-26T12:59:35;16.13;;;7.10;;
67965;SDS011;54749;47.850;9.002;2023-06-26T13:02:04;11.00;;;6.47;;
67965;SDS011;54749;47.850;9.002;2023-06-26T13:04:31;9.93;;;6.38;;
67965;SDS011;54749;47.850;9.002;2023-06-26T13:06:58;9.32;;;6.10;;
67965;SDS011;54749;47.850;9.002;2023-06-26T13:09:26;10.88;;;6.93;;
67965;SDS011;54749;47.850;9.002;2023-06-26T13:11:53;9.60;;;6.43;;
67965;SDS011;54749;47.850;9.002;2023-06-26T13:14:20;12.50;;;7.10;;
67965;SDS011;54749;47.850;9.002;2023-06-26T13:16:48;12.00;;;7.10;;
67965;SDS011;54749;47.850;9.002;2023-06-26T13:19:15;11.38;;;6.22;;
67965;SDS011;54749;47.850;9.002;2023-06-26T13:21:43;11.23;;;6.68;;
67965;SDS011;54749;47.850;9.002;2023-06-26T13:24:10;11.47;;;6.63;;
67965;SDS011;54749;47.850;9.002;2023-06-26T13:26:37;10.70;;;6.78;;
67965;SDS011;54749;47.850;9.002;2023-06-26T13:29:05;14.60;;;6.90;;
67965;SDS011;54749;47.850;9.002;2023-06-26T13:31:32;11.25;;;6.53;;
67965;SDS011;54749;47.850;9.002;2023-06-26T13:33:59;11.25;;;6.88;;
67965;SDS011;54749;47.850;9.002;2023-06-26T13:36:27;13.37;;;6.57;;
67965;SDS011;54749;47.850;9.002;2023-06-26T13:38:54;10.52;;;6.78;;
67965;SDS011;54749;47.850;9.002;2023-06-26T13:41:24;10.93;;;6.78;;
67965;SDS011;54749;47.850;9.002;2023-06-26T13:43:52;10.65;;;6.40;;
67965;SDS011;54749;47.850;9.002;2023-06-26T13:46:21;10.27;;;6.15;;
67965;SDS011;54749;47.850;9.002;2023-06-26T13:48:48;10.33;;;6.63;;
67965;SDS011;54749;47.850;9.002;2023-06-26T13:51:15;9.90;;;6.35;;
67965;SDS011;54749;47.850;9.002;2023-06-26T13:53:42;9.32;;;6.30;;
67965;SDS011;54749;47.850;9.002;2023-06-26T13:56:09;13.32;;;7.15;;
67965;SDS011;54749;47.850;9.002;2023-06-26T13:58:36;9.50;;;6.20;;
67965;SDS011;54749;47.850;9.002;2023-06-26T14:01:06;11.37;;;6.63;;
67965;SDS011;54749;47.850;9.002;2023-06-26T14:03:33;10.20;;;6.90;;
67965;SDS011;54749;47.850;9.002;2023-06-26T14:06:01;10.07;;;6.68;;
67965;SDS011;54749;47.850;9.002;2023-06-26T14:08:28;9.23;;;6.22;;
67965;SDS011;54749;47.850;9.002;2023-06-26T14:10:55;10.05;;;6.07;;
67965;SDS011;54749;47.850;9.002;2023-06-26T14:13:22;11.73;;;6.30;;
67965;SDS011;54749;47.850;9.002;2023-06-26T14:15:50;8.43;;;6.00;;
67965;SDS011;54749;47.850;9.002;2023-06-26T14:18:20;9.70;;;6.20;;
67965;SDS011;54749;47.850;9.002;2023-06-26T14:20:51;9.65;;;6.25;;
67965;SDS011;54749;47.850;9.002;2023-06-26T14:23:18;12.45;;;6.47;;
67965;SDS011;54749;47.850;9.002;2023-06-26T14:25:45;12.90;;;7.43;;
67965;SDS011;54749;47.850;9.002;2023-06-26T14:28:15;9.18;;;5.97;;
67965;SDS011;54749;47.850;9.002;2023-06-26T14:30:42;10.77;;;6.53;;
67965;SDS011;54749;47.850;9.002;2023-06-26T14:33:10;12.77;;;6.75;;
67965;SDS011;54749;47.850;9.002;2023-06-26T14:35:37;10.07;;;6.90;;
67965;SDS011;54749;47.850;9.002;2023-06-26T14:38:04;10.27;;;7.00;;
67965;SDS011;54749;47.850;9.002;2023-06-26T14:40:31;9.75;;;6.68;;
67965;SDS011;54749;47.850;9.002;2023-06-26T14:42:59;9.65;;;6.15;;
67965;SDS011;54749;47.850;9.002;2023-06-26T14:45:26;11.05;;;6.65;;
67965;SDS011;54749;47.850;9.002;2023-06-26T14:47:54;10.45;;;7.32;;
67965;SDS011;54749;47.850;9.002;2023-06-26T14:50:21;13.43;;;7.60;;
67965;SDS011;54749;47.850;9.002;2023-06-26T14:52:48;10.48;;;7.03;;
67965;SDS011;54749;47.850;9.002;2023-06-26T14:55:15;8.88;;;6.07;;
67965;SDS011;54749;47.850;9.002;2023-06-26T14:57:42;10.55;;;6.20;;